createdAt,value
2018-09-17T00:00:58.282Z,99140.59
2018-09-17T00:03:27.665Z,99142.22
2018-09-17T00:05:57.106Z,99145.42
2018-09-17T00:08:26.313Z,99148.64
2018-09-17T00:10:55.536Z,99149.45
2018-09-17T00:13:24.921Z,99145.42
2018-09-17T00:15:54.528Z,99147.02
2018-09-17T00:18:25.237Z,99156.42
2018-09-17T00:20:54.492Z,99151.03
2018-09-17T00:23:23.698Z,99152.38
2018-09-17T00:25:53.143Z,99148.05
2018-09-17T00:28:22.488Z,99157.45
2018-09-17T00:30:51.909Z,99159.03
2018-09-17T00:33:21.645Z,99164.34
2018-09-17T00:35:50.922Z,99158.95
2018-09-17T00:38:20.272Z,99157.83
2018-09-17T00:40:49.572Z,99163.21
2018-09-17T00:43:18.989Z,99162.95
2018-09-17T00:45:48.263Z,99159.45
2018-09-17T00:48:17.483Z,99154.86
2018-09-17T00:50:46.808Z,99158.89
2018-09-17T00:53:17.877Z,99159.45
2018-09-17T00:55:47.151Z,99160.50
2018-09-17T00:58:16.756Z,99164.52
2018-09-17T01:00:46.129Z,99165.86
2018-09-17T01:03:15.440Z,99160.48
2018-09-17T01:05:45.159Z,99160.73
2018-09-17T01:08:14.629Z,99159.39
2018-09-17T01:10:43.992Z,99155.11
2018-09-17T01:13:13.400Z,99156.45
2018-09-17T01:15:42.800Z,99158.03
2018-09-17T01:18:12.109Z,99159.12
2018-09-17T01:20:41.438Z,99161.52
2018-09-17T01:23:10.950Z,99158.81
2018-09-17T01:25:40.228Z,99164.70
2018-09-17T01:28:09.561Z,99165.51
2018-09-17T01:30:38.927Z,99163.88
2018-09-17T01:33:08.233Z,99165.21
2018-09-17T01:35:37.732Z,99163.58
2018-09-17T01:38:06.942Z,99167.36
2018-09-17T01:40:36.224Z,99165.45
2018-09-17T01:43:05.793Z,99160.08
2018-09-17T01:45:35.182Z,99163.31
2018-09-17T01:48:04.494Z,99159.23
2018-09-17T01:50:33.790Z,99161.38
2018-09-17T01:53:03.458Z,99170.21
2018-09-17T01:55:32.789Z,99163.48
2018-09-17T01:58:02.093Z,99163.48
2018-09-17T02:00:31.498Z,99170.71
2018-09-17T02:03:00.816Z,99169.59
2018-09-17T02:05:30.206Z,99168.00
2018-09-17T02:07:59.534Z,99167.17
2018-09-17T02:10:30.472Z,99171.20
2018-09-17T02:13:00.130Z,99170.38
2018-09-17T02:15:29.485Z,99169.04
2018-09-17T02:17:58.837Z,99172.52
2018-09-17T02:20:28.123Z,99173.05
2018-09-17T02:22:57.415Z,99172.22
2018-09-17T02:25:26.792Z,99182.41
2018-09-17T02:27:56.383Z,99178.09
2018-09-17T02:30:25.637Z,99173.78
2018-09-17T02:32:54.931Z,99176.77
2018-09-17T02:35:24.358Z,99171.41
2018-09-17T02:37:53.651Z,99172.77
2018-09-17T02:40:22.969Z,99171.13
2018-09-17T02:42:52.314Z,99172.22
2018-09-17T02:45:21.821Z,99167.36
2018-09-17T02:47:51.820Z,99179.15
2018-09-17T02:50:21.383Z,99173.78
2018-09-17T02:52:50.741Z,99182.41
2018-09-17T02:55:19.934Z,99182.41
2018-09-17T02:57:49.318Z,99176.79
2018-09-17T03:00:20.658Z,99175.98
2018-09-17T03:02:51.718Z,99182.72
2018-09-17T03:05:20.998Z,99176.58
2018-09-17T03:07:50.282Z,99184.64
2018-09-17T03:10:19.537Z,99184.13
2018-09-17T03:12:48.810Z,99180.66
2018-09-17T03:15:29.141Z,99182.53
2018-09-17T03:17:58.698Z,99179.85
2018-09-17T03:20:28.023Z,99183.06
2018-09-17T03:22:57.592Z,99179.58
2018-09-17T03:25:26.918Z,99186.25
2018-09-17T03:27:56.205Z,99184.11
2018-09-17T03:30:25.518Z,99186.50
2018-09-17T03:32:54.817Z,99190.20
2018-09-17T03:35:24.068Z,99189.05
2018-09-17T03:37:53.733Z,99187.15
2018-09-17T03:40:23.040Z,99186.59
2018-09-17T03:42:52.387Z,99195.14
2018-09-17T03:45:21.716Z,99199.13
2018-09-17T03:47:51.016Z,99199.85
2018-09-17T03:50:20.345Z,99199.02
2018-09-17T03:52:49.577Z,99200.05
2018-09-17T03:55:18.806Z,99200.59
2018-09-17T03:57:48.202Z,99207.23
2018-09-17T04:00:17.874Z,99200.45
2018-09-17T04:02:47.233Z,99199.62
2018-09-17T04:05:17.213Z,99205.25
2018-09-17T04:07:46.558Z,99203.88
2018-09-17T04:10:15.839Z,99203.09
2018-09-17T04:12:45.121Z,99205.80
2018-09-17T04:15:14.417Z,99210.11
2018-09-17T04:17:43.837Z,99217.30
2018-09-17T04:20:13.085Z,99212.45
2018-09-17T04:22:43.671Z,99207.36
2018-09-17T04:25:13.807Z,99212.43
2018-09-17T04:27:43.029Z,99211.33
2018-09-17T04:30:12.819Z,99214.56
2018-09-17T04:32:42.280Z,99219.63
2018-09-17T04:35:11.648Z,99218.00
2018-09-17T04:37:41.028Z,99216.66
2018-09-17T04:40:10.278Z,99211.55
2018-09-17T04:42:39.677Z,99211.28
2018-09-17T04:45:09.217Z,99213.14
2018-09-17T04:47:38.462Z,99205.39
2018-09-17T04:50:07.812Z,99201.66
2018-09-17T04:52:37.188Z,99208.91
2018-09-17T04:55:06.623Z,99204.05
2018-09-17T04:57:35.813Z,99211.25
2018-09-17T05:00:05.156Z,99214.48
2018-09-17T05:02:34.429Z,99219.09
2018-09-17T05:05:03.757Z,99234.67
2018-09-17T05:07:32.970Z,99227.99
2018-09-17T05:10:02.345Z,99229.06
2018-09-17T05:12:31.581Z,99232.56
2018-09-17T05:15:01.045Z,99245.49
2018-09-17T05:17:30.399Z,99250.36
2018-09-17T05:19:59.662Z,99239.70
2018-09-17T05:22:28.978Z,99242.96
2018-09-17T05:24:59.024Z,99236.86
2018-09-17T05:27:28.494Z,99237.47
2018-09-17T05:29:57.749Z,99241.03
2018-09-17T05:32:27.318Z,99240.30
2018-09-17T05:34:56.622Z,99236.63
2018-09-17T05:37:27.177Z,99232.11
2018-09-17T05:39:56.438Z,99229.77
2018-09-17T05:42:25.728Z,99228.75
2018-09-17T05:44:57.103Z,99223.37
2018-09-17T05:47:26.627Z,99226.84
2018-09-17T05:49:55.862Z,99230.62
2018-09-17T05:52:25.088Z,99227.66
2018-09-17T05:54:54.382Z,99226.59
2018-09-17T05:57:23.601Z,99234.81
2018-09-17T05:59:52.944Z,99238.89
2018-09-17T06:02:22.262Z,99244.66
2018-09-17T06:04:51.554Z,99248.36
2018-09-17T06:07:20.881Z,99254.54
2018-09-17T06:09:50.677Z,99254.06
2018-09-17T06:12:21.266Z,99250.80
2018-09-17T06:14:50.482Z,99242.25
2018-09-17T06:17:19.831Z,99245.31
2018-09-17T06:19:49.184Z,99249.89
2018-09-17T06:22:19.753Z,99255.56
2018-09-17T06:24:49.046Z,99249.67
2018-09-17T06:27:18.368Z,99254.83
2018-09-17T06:29:48.204Z,99261.28
2018-09-17T06:32:17.389Z,99263.22
2018-09-17T06:34:46.673Z,99269.14
2018-09-17T06:37:15.965Z,99265.69
2018-09-17T06:39:45.994Z,99273.49
2018-09-17T06:42:16.121Z,99278.11
2018-09-17T06:44:45.467Z,99283.50
2018-09-17T06:47:14.721Z,99277.89
2018-09-17T06:49:43.912Z,99283.85
2018-09-17T06:52:13.376Z,99283.63
2018-09-17T06:54:42.711Z,99282.04
2018-09-17T06:57:12.001Z,99280.69
2018-09-17T06:59:41.629Z,99277.20
2018-09-17T07:02:10.958Z,99275.01
2018-09-17T07:04:40.196Z,99272.05
2018-09-17T07:07:10.423Z,99280.11
2018-09-17T07:09:39.715Z,99279.57
2018-09-17T07:12:09.026Z,99285.73
2018-09-17T07:14:38.620Z,99281.69
2018-09-17T07:17:08.974Z,99278.73
2018-09-17T07:19:38.265Z,99273.55
2018-09-17T07:22:07.547Z,99283.22
2018-09-17T07:24:36.938Z,99282.34
2018-09-17T07:27:06.342Z,99288.25
2018-09-17T07:29:36.071Z,99291.14
2018-09-17T07:32:05.334Z,99288.45
2018-09-17T07:34:34.665Z,99294.33
2018-09-17T07:37:04.320Z,99288.83
2018-09-17T07:39:33.704Z,99291.23
2018-09-17T07:42:02.995Z,99287.28
2018-09-17T07:44:32.298Z,99288.76
2018-09-17T07:47:01.500Z,99281.03
2018-09-17T07:49:30.834Z,99283.02
2018-09-17T07:52:00.156Z,99282.66
2018-09-17T07:54:29.277Z,99281.55
2018-09-17T07:57:00.438Z,99286.90
2018-09-17T07:59:29.726Z,99291.02
2018-09-17T08:01:59.086Z,99290.30
2018-09-17T08:04:28.409Z,99287.33
2018-09-17T08:06:57.649Z,99294.77
2018-09-17T08:09:26.849Z,99283.60
2018-09-17T08:11:56.369Z,99287.72
2018-09-17T08:14:25.670Z,99279.55
2018-09-17T08:16:54.906Z,99280.25
2018-09-17T08:19:24.847Z,99279.30
2018-09-17T08:21:54.261Z,99292.05
2018-09-17T08:24:24.453Z,99287.98
2018-09-17T08:26:53.782Z,99289.00
2018-09-17T08:29:22.984Z,99282.02
2018-09-17T08:31:53.658Z,99278.39
2018-09-17T08:34:23.064Z,99277.58
2018-09-17T08:36:52.380Z,99275.47
2018-09-17T08:39:21.588Z,99271.93
2018-09-17T08:41:50.868Z,99266.29
2018-09-17T08:44:20.510Z,99268.13
2018-09-17T08:46:49.818Z,99264.55
2018-09-17T08:49:19.098Z,99257.29
2018-09-17T08:51:48.396Z,99256.52
2018-09-17T08:54:17.589Z,99257.82
2018-09-17T08:56:59.213Z,99259.02
2018-09-17T08:59:33.855Z,99262.13
2018-09-17T09:02:08.581Z,99261.91
2018-09-17T09:04:43.013Z,99260.92
2018-09-17T09:08:15.369Z,99254.41
2018-09-17T09:10:48.615Z,99245.55
2018-09-17T09:13:19.914Z,99240.83
2018-09-17T09:15:49.241Z,99232.04
2018-09-17T09:18:18.472Z,99230.33
2018-09-17T09:20:47.733Z,99226.34
2018-09-17T09:23:16.921Z,99221.67
2018-09-17T09:25:46.122Z,99212.53
2018-09-17T09:28:15.443Z,99215.61
2018-09-17T09:30:44.670Z,99211.53
2018-09-17T09:33:13.943Z,99207.06
2018-09-17T09:35:43.256Z,99200.70
2018-09-17T09:38:12.452Z,99191.50
2018-09-17T09:40:41.686Z,99200.42
2018-09-17T09:43:10.929Z,99206.86
2018-09-17T09:45:40.185Z,99209.58
2018-09-17T09:48:09.406Z,99210.94
2018-09-17T09:51:00.817Z,99203.58
2018-09-17T09:53:33.509Z,99191.25
2018-09-17T09:56:03.104Z,99188.23
2018-09-17T09:58:44.333Z,99186.78
2018-09-17T10:01:18.934Z,99182.31
2018-09-17T10:03:52.351Z,99182.62
2018-09-17T10:06:21.553Z,99170.05
2018-09-17T10:08:56.133Z,99168.83
2018-09-17T10:11:30.742Z,99161.91
2018-09-17T10:15:06.733Z,99167.79
2018-09-17T10:17:41.164Z,99162.47
2018-09-17T10:20:10.409Z,99166.81
2018-09-17T10:22:39.698Z,99167.68
2018-09-17T10:25:09.093Z,99160.46
2018-09-17T10:27:38.418Z,99162.11
2018-09-17T10:30:07.569Z,99158.34
2018-09-17T10:32:36.833Z,99159.22
2018-09-17T10:35:06.438Z,99150.69
2018-09-17T10:37:35.556Z,99152.73
2018-09-17T10:40:04.857Z,99146.24
2018-09-17T10:42:34.110Z,99140.75
2018-09-17T10:45:03.315Z,99145.91
2018-09-17T10:47:32.670Z,99145.38
2018-09-17T10:50:01.837Z,99141.52
2018-09-17T10:52:31.123Z,99136.86
2018-09-17T10:55:00.361Z,99134.52
2018-09-17T10:57:29.681Z,99137.66
2018-09-17T10:59:58.933Z,99132.78
2018-09-17T11:02:28.133Z,99125.37
2018-09-17T11:04:57.364Z,99125.79
2018-09-17T11:07:26.778Z,99119.68
2018-09-17T11:09:55.924Z,99116.39
2018-09-17T11:12:25.139Z,99118.08
2018-09-17T11:14:54.310Z,99118.25
2018-09-17T11:17:23.761Z,99108.42
2018-09-17T11:19:52.981Z,99107.99
2018-09-17T11:22:22.222Z,99107.48
2018-09-17T11:24:51.480Z,99105.36
2018-09-17T11:27:20.831Z,99106.23
2018-09-17T11:29:50.032Z,99105.42
2018-09-17T11:32:19.381Z,99094.29
2018-09-17T11:34:48.588Z,99098.28
2018-09-17T11:37:18.312Z,99091.53
2018-09-17T11:39:47.516Z,99088.10
2018-09-17T11:42:16.653Z,99082.05
2018-09-17T11:44:45.922Z,99081.38
2018-09-17T11:47:15.232Z,99072.48
2018-09-17T11:49:44.404Z,99073.43
2018-09-17T11:52:13.529Z,99075.27
2018-09-17T11:54:42.669Z,99065.14
2018-09-17T11:57:11.817Z,99066.84
2018-09-17T11:59:41.014Z,99059.31
2018-09-17T12:02:14.400Z,99055.62
2018-09-17T12:04:48.742Z,99053.39
2018-09-17T12:07:23.259Z,99051.23
2018-09-17T12:09:52.533Z,99048.70
2018-09-17T12:12:21.690Z,99042.28
2018-09-17T12:14:50.866Z,99046.05
2018-09-17T12:17:20.018Z,99035.58
2018-09-17T12:19:49.177Z,99033.05
2018-09-17T12:22:18.349Z,99031.97
2018-09-17T12:24:47.500Z,99024.03
2018-09-17T12:27:16.695Z,99019.78
2018-09-17T12:29:46.205Z,99027.20
2018-09-17T12:32:15.470Z,99019.77
2018-09-17T12:34:44.946Z,99019.77
2018-09-17T12:37:14.534Z,99009.73
2018-09-17T12:39:43.868Z,99007.38
2018-09-17T12:42:13.031Z,99001.14
2018-09-17T12:44:42.313Z,99002.56
2018-09-17T12:47:11.490Z,98996.52
2018-09-17T12:49:40.658Z,99001.89
2018-09-17T12:52:09.852Z,98991.96
2018-09-17T12:54:39.003Z,98987.05
2018-09-17T12:57:08.466Z,98984.98
2018-09-17T12:59:37.626Z,98993.66
2018-09-17T13:02:06.788Z,98991.62
2018-09-17T13:04:35.891Z,98988.97
2018-09-17T13:07:05.062Z,98986.84
2018-09-17T13:09:34.208Z,98984.26
2018-09-17T13:12:03.402Z,98984.27
2018-09-17T13:14:32.556Z,98978.55
2018-09-17T13:17:01.721Z,98981.73
2018-09-17T13:19:30.877Z,98982.40
2018-09-17T13:22:00.038Z,98973.94
2018-09-17T13:24:29.173Z,98980.66
2018-09-17T13:26:58.338Z,98969.52
2018-09-17T13:29:27.553Z,98972.06
2018-09-17T13:31:57.202Z,98974.55
2018-09-17T13:34:26.688Z,98967.83
2018-09-17T13:36:55.956Z,98961.38
2018-09-17T13:39:25.128Z,98959.00
2018-09-17T13:41:54.304Z,98960.30
2018-09-17T13:44:23.554Z,98959.23
2018-09-17T13:46:52.686Z,98960.26
2018-09-17T13:49:21.836Z,98959.45
2018-09-17T13:51:51.238Z,98955.62
2018-09-17T13:54:20.468Z,98956.02
2018-09-17T13:56:49.740Z,98952.60
2018-09-17T13:59:18.922Z,98953.02
2018-09-17T14:01:48.307Z,98956.70
2018-09-17T14:04:17.552Z,98953.58
2018-09-17T14:06:46.713Z,98947.45
2018-09-17T14:09:15.859Z,98951.11
2018-09-17T14:11:44.999Z,98943.49
2018-09-17T14:14:14.170Z,98940.19
2018-09-17T14:16:43.415Z,98939.20
2018-09-17T14:19:12.571Z,98929.95
2018-09-17T14:21:41.813Z,98931.66
2018-09-17T14:24:10.947Z,98930.56
2018-09-17T14:26:40.062Z,98924.16
2018-09-17T14:29:09.352Z,98928.78
2018-09-17T14:31:43.866Z,98925.52
2018-09-17T14:34:13.061Z,98921.69
2018-09-17T14:36:42.174Z,98917.69
2018-09-17T14:39:11.360Z,98912.80
2018-09-17T14:41:40.490Z,98916.77
2018-09-17T14:44:09.938Z,98917.59
2018-09-17T14:46:39.029Z,98914.68
2018-09-17T14:49:09.363Z,98910.12
2018-09-17T14:51:38.551Z,98905.20
2018-09-17T14:54:07.722Z,98901.80
2018-09-17T14:56:36.916Z,98903.37
2018-09-17T14:59:06.123Z,98906.70
2018-09-17T15:01:35.386Z,98901.80
2018-09-17T15:04:06.717Z,98897.23
2018-09-17T15:06:35.854Z,98903.39
2018-09-17T15:09:07.366Z,98893.95
2018-09-17T15:11:36.557Z,98902.05
2018-09-17T15:14:05.810Z,98896.45
2018-09-17T15:16:35.017Z,98900.23
2018-09-17T15:19:04.213Z,98896.45
2018-09-17T15:21:33.515Z,98901.28
2018-09-17T15:24:02.728Z,98903.34
2018-09-17T15:26:31.951Z,98901.05
2018-09-17T15:29:01.001Z,98903.02
2018-09-17T15:31:30.243Z,98903.80
2018-09-17T15:33:59.517Z,98900.84
2018-09-17T15:36:29.543Z,98900.84
2018-09-17T15:38:58.786Z,98892.64
2018-09-17T15:41:28.218Z,98891.39
2018-09-17T15:43:57.259Z,98894.33
2018-09-17T15:46:26.457Z,98891.39
2018-09-17T15:48:55.736Z,98884.42
2018-09-17T15:51:24.935Z,98882.13
2018-09-17T15:53:54.228Z,98879.52
2018-09-17T15:56:23.539Z,98874.72
2018-09-17T15:58:52.761Z,98885.56
2018-09-17T16:01:22.016Z,98881.56
2018-09-17T16:03:51.182Z,98882.23
2018-09-17T16:06:20.380Z,98883.71
2018-09-17T16:08:49.658Z,98873.33
2018-09-17T16:11:18.747Z,98879.20
2018-09-17T16:13:47.979Z,98872.71
2018-09-17T16:16:17.535Z,98874.98
2018-09-17T16:18:46.708Z,98880.66
2018-09-17T16:21:15.934Z,98879.75
2018-09-17T16:23:45.111Z,98866.31
2018-09-17T16:26:15.194Z,98879.43
2018-09-17T16:28:44.366Z,98882.48
2018-09-17T16:31:13.528Z,98882.47
2018-09-17T16:33:42.731Z,98876.05
2018-09-17T16:36:11.871Z,98879.34
2018-09-17T16:38:41.068Z,98880.57
2018-09-17T16:41:10.257Z,98880.62
2018-09-17T16:43:40.313Z,98882.05
2018-09-17T16:46:09.794Z,98877.92
2018-09-17T16:48:38.970Z,98876.62
2018-09-17T16:51:08.493Z,98879.52
2018-09-17T16:53:37.812Z,98879.54
2018-09-17T16:56:06.795Z,98876.31
2018-09-17T16:58:36.000Z,98879.49
2018-09-17T17:01:05.208Z,98883.73
2018-09-17T17:03:34.396Z,98890.45
2018-09-17T17:06:03.565Z,98881.02
2018-09-17T17:08:32.748Z,98884.45
2018-09-17T17:11:01.934Z,98885.35
2018-09-17T17:13:31.335Z,98881.02
2018-09-17T17:16:00.604Z,98885.86
2018-09-17T17:18:29.752Z,98886.80
2018-09-17T17:20:59.017Z,98889.05
2018-09-17T17:23:28.279Z,98893.89
2018-09-17T17:25:57.491Z,98896.70
2018-09-17T17:28:27.404Z,98894.31
2018-09-17T17:30:56.579Z,98903.23
2018-09-17T17:33:25.721Z,98897.29
2018-09-17T17:35:54.987Z,98907.28
2018-09-17T17:38:24.202Z,98903.97
2018-09-17T17:40:54.244Z,98904.64
2018-09-17T17:43:23.369Z,98904.97
2018-09-17T17:45:52.571Z,98901.95
2018-09-17T17:48:21.769Z,98903.61
2018-09-17T17:50:51.026Z,98901.14
2018-09-17T17:53:20.261Z,98898.34
2018-09-17T17:55:49.499Z,98904.25
2018-09-17T17:58:18.759Z,98901.86
2018-09-17T18:00:47.930Z,98897.70
2018-09-17T18:03:17.143Z,98895.16
2018-09-17T18:05:46.439Z,98893.00
2018-09-17T18:08:15.620Z,98892.61
2018-09-17T18:10:44.821Z,98894.69
2018-09-17T18:13:15.279Z,98889.17
2018-09-17T18:15:44.432Z,98891.17
2018-09-17T18:18:13.616Z,98887.73
2018-09-17T18:20:43.029Z,98887.97
2018-09-17T18:23:12.205Z,98883.73
2018-09-17T18:25:41.393Z,98894.20
2018-09-17T18:28:10.750Z,98891.97
2018-09-17T18:30:40.436Z,98901.30
2018-09-17T18:33:09.749Z,98901.34
2018-09-17T18:35:38.945Z,98897.52
2018-09-17T18:38:08.139Z,98899.98
2018-09-17T18:40:37.355Z,98896.87
2018-09-17T18:43:06.816Z,98888.55
2018-09-17T18:45:36.009Z,98898.05
2018-09-17T18:48:05.257Z,98890.47
2018-09-17T18:50:34.536Z,98889.03
2018-09-17T18:53:03.782Z,98889.74
2018-09-17T18:55:32.933Z,98887.23
2018-09-17T18:58:02.196Z,98887.61
2018-09-17T19:00:31.445Z,98888.59
2018-09-17T19:03:00.625Z,98884.44
2018-09-17T19:05:29.863Z,98886.70
2018-09-17T19:07:59.066Z,98883.91
2018-09-17T19:10:28.174Z,98878.66
2018-09-17T19:12:57.360Z,98876.79
2018-09-17T19:15:35.370Z,98886.74
2018-09-17T19:18:09.895Z,98883.95
2018-09-17T19:20:39.213Z,98881.64
2018-09-17T19:23:13.425Z,98878.27
2018-09-17T19:25:42.673Z,98886.55
2018-09-17T19:28:17.226Z,98884.80
2018-09-17T19:30:46.377Z,98884.58
2018-09-17T19:33:17.061Z,98886.09
2018-09-17T19:35:46.236Z,98885.43
2018-09-17T19:38:20.877Z,98879.00
2018-09-17T19:40:50.025Z,98871.61
2018-09-17T19:43:19.259Z,98878.28
2018-09-17T19:45:53.880Z,98883.16
2018-09-17T19:48:23.180Z,98883.05
2018-09-17T19:50:57.638Z,98883.47
2018-09-17T19:53:26.817Z,98878.51
2018-09-17T19:55:56.065Z,98878.52
2018-09-17T19:58:30.566Z,98873.58
2018-09-17T20:00:59.825Z,98881.33
2018-09-17T20:03:28.917Z,98888.76
2018-09-17T20:06:03.386Z,98886.49
2018-09-17T20:08:32.573Z,98885.00
2018-09-17T20:11:01.748Z,98880.58
2018-09-17T20:13:30.977Z,98884.73
2018-09-17T20:16:01.320Z,98890.05
2018-09-17T20:18:31.496Z,98892.85
2018-09-17T20:21:00.785Z,98886.73
2018-09-17T20:23:30.098Z,98887.66
2018-09-17T20:25:59.602Z,98882.59
2018-09-17T20:28:28.822Z,98886.55
2018-09-17T20:30:58.473Z,98896.69
2018-09-17T20:33:31.119Z,98898.94
2018-09-17T20:36:00.416Z,98896.39
2018-09-17T20:38:29.960Z,98892.73
2018-09-17T20:40:59.139Z,98892.26
2018-09-17T20:43:28.253Z,98894.48
2018-09-17T20:45:57.435Z,98889.77
2018-09-17T20:48:26.684Z,98892.87
2018-09-17T20:50:56.058Z,98879.72
2018-09-17T20:53:25.265Z,98885.23
2018-09-17T20:55:54.441Z,98883.72
2018-09-17T20:58:23.646Z,98888.14
2018-09-17T21:00:52.902Z,98891.17
2018-09-17T21:03:22.105Z,98887.76
2018-09-17T21:05:51.248Z,98882.13
2018-09-17T21:08:20.403Z,98880.59
2018-09-17T21:10:49.606Z,98869.55
2018-09-17T21:13:18.829Z,98876.32
2018-09-17T21:15:47.982Z,98867.18
2018-09-17T21:18:17.211Z,98869.81
2018-09-17T21:20:46.435Z,98876.98
2018-09-17T21:23:15.593Z,98882.72
2018-09-17T21:25:44.788Z,98886.87
2018-09-17T21:28:14.022Z,98882.05
2018-09-17T21:30:43.218Z,98878.30
2018-09-17T21:33:12.391Z,98881.05
2018-09-17T21:35:41.573Z,98877.63
2018-09-17T21:38:10.784Z,98877.94
2018-09-17T21:40:39.970Z,98872.84
2018-09-17T21:43:09.447Z,98872.31
2018-09-17T21:45:38.593Z,98872.66
2018-09-17T21:48:08.555Z,98873.33
2018-09-17T21:50:37.685Z,98883.14
2018-09-17T21:53:07.198Z,98873.96
2018-09-17T21:55:36.434Z,98871.34
2018-09-17T21:58:05.794Z,98871.92
2018-09-17T22:00:40.254Z,98870.42
2018-09-17T22:03:09.578Z,98872.89
2018-09-17T22:05:39.147Z,98873.00
2018-09-17T22:08:08.394Z,98878.25
2018-09-17T22:10:38.412Z,98873.13
2018-09-17T22:13:07.833Z,98876.71
2018-09-17T22:15:37.019Z,98868.41
2018-09-17T22:18:06.241Z,98867.13
2018-09-17T22:20:35.619Z,98869.94
2018-09-17T22:23:04.824Z,98869.50
2018-09-17T22:25:34.228Z,98871.94
2018-09-17T22:28:03.749Z,98862.28
2018-09-17T22:30:32.949Z,98860.70
2018-09-17T22:33:02.166Z,98869.03
2018-09-17T22:35:31.316Z,98858.06
2018-09-17T22:38:00.641Z,98860.73
2018-09-17T22:40:29.861Z,98859.41
2018-09-17T22:42:59.029Z,98864.81
2018-09-17T22:45:28.414Z,98869.94
2018-09-17T22:47:57.682Z,98865.63
2018-09-17T22:50:37.336Z,98855.73
2018-09-17T22:53:08.004Z,98856.60
2018-09-17T22:55:40.993Z,98860.14
2018-09-17T22:58:10.253Z,98858.02
2018-09-17T23:00:39.430Z,98854.03
2018-09-17T23:03:08.872Z,98859.48
2018-09-17T23:05:38.153Z,98857.35
2018-09-17T23:08:07.645Z,98860.34
2018-09-17T23:10:36.893Z,98852.07
2018-09-17T23:13:06.210Z,98849.19
2018-09-17T23:15:35.532Z,98852.74
2018-09-17T23:18:04.709Z,98851.95
2018-09-17T23:20:33.917Z,98857.65
2018-09-17T23:23:03.090Z,98862.80
2018-09-17T23:25:32.290Z,98859.83
2018-09-17T23:28:01.501Z,98858.48
2018-09-17T23:30:30.769Z,98860.22
2018-09-17T23:33:00.025Z,98862.42
2018-09-17T23:35:29.215Z,98858.67
2018-09-17T23:37:58.448Z,98854.62
2018-09-17T23:40:27.684Z,98850.87
2018-09-17T23:42:56.976Z,98856.02
2018-09-17T23:45:29.755Z,98855.25
2018-09-17T23:47:59.260Z,98854.22
2018-09-17T23:50:28.472Z,98850.71
2018-09-17T23:52:57.688Z,98848.83
2018-09-17T23:55:26.880Z,98848.88
2018-09-17T23:57:56.069Z,98842.94
